sensor_id;sensor_type;location;lat;lon;timestamp;temperature;humidity
76172;DHT22;64929;51.178;4.138;2023-12-14T00:02:03;10.70;99.90
76172;DHT22;64929;51.178;4.138;2023-12-14T00:04:28;10.60;99.90
76172;DHT22;64929;51.178;4.138;2023-12-14T00:06:54;10.60;99.90
76172;DHT22;64929;51.178;4.138;2023-12-14T00:09:20;10.70;99.90
76172;DHT22;64929;51.178;4.138;2023-12-14T00:11:45;10.60;99.90
76172;DHT22;64929;51.178;4.138;2023-12-14T00:14:11;10.60;99.90
76172;DHT22;64929;51.178;4.138;2023-12-14T00:16:37;10.60;99.90
76172;DHT22;64929;51.178;4.138;2023-12-14T00:19:02;10.60;99.90
76172;DHT22;64929;51.178;4.138;2023-12-14T00:21:28;10.60;99.90
76172;DHT22;64929;51.178;4.138;2023-12-14T00:23:54;10.50;99.90
76172;DHT22;64929;51.178;4.138;2023-12-14T00:26:19;10.70;99.90
76172;DHT22;64929;51.178;4.138;2023-12-14T00:28:45;10.50;99.90
76172;DHT22;64929;51.178;4.138;2023-12-14T00:31:11;10.40;99.90
76172;DHT22;64929;51.178;4.138;2023-12-14T00:33:36;10.40;99.90
76172;DHT22;64929;51.178;4.138;2023-12-14T00:36:02;10.40;99.90
76172;DHT22;64929;51.178;4.138;2023-12-14T00:38:28;10.50;99.90
76172;DHT22;64929;51.178;4.138;2023-12-14T00:40:54;10.40;99.90
76172;DHT22;64929;51.178;4.138;2023-12-14T00:43:19;10.50;99.90
76172;DHT22;64929;51.178;4.138;2023-12-14T00:45:45;10.60;99.90
76172;DHT22;64929;51.178;4.138;2023-12-14T00:48:11;10.50;99.90
76172;DHT22;64929;51.178;4.138;2023-12-14T00:50:37;10.40;99.90
76172;DHT22;64929;51.178;4.138;2023-12-14T00:53:02;10.30;99.90
76172;DHT22;64929;51.178;4.138;2023-12-14T00:55:28;10.20;99.90
76172;DHT22;64929;51.178;4.138;2023-12-14T00:57:54;10.30;99.90
76172;DHT22;64929;51.178;4.138;2023-12-14T01:00:19;10.20;99.90
76172;DHT22;64929;51.178;4.138;2023-12-14T01:02:45;10.20;99.90
76172;DHT22;64929;51.178;4.138;2023-12-14T01:05:11;10.30;99.90
76172;DHT22;64929;51.178;4.138;2023-12-14T01:07:36;10.30;99.90
76172;DHT22;64929;51.178;4.138;2023-12-14T01:10:03;10.10;99.90
76172;DHT22;64929;51.178;4.138;2023-12-14T01:12:29;9.90;99.90
76172;DHT22;64929;51.178;4.138;2023-12-14T01:14:55;9.90;99.90
76172;DHT22;64929;51.178;4.138;2023-12-14T01:17:20;10.00;99.90
76172;DHT22;64929;51.178;4.138;2023-12-14T01:19:46;9.90;99.90
76172;DHT22;64929;51.178;4.138;2023-12-14T01:22:12;10.00;99.90
76172;DHT22;64929;51.178;4.138;2023-12-14T01:24:37;10.00;99.90
76172;DHT22;64929;51.178;4.138;2023-12-14T01:27:03;10.00;99.90
76172;DHT22;64929;51.178;4.138;2023-12-14T01:29:29;10.00;99.90
76172;DHT22;64929;51.178;4.138;2023-12-14T01:31:55;9.70;99.90
76172;DHT22;64929;51.178;4.138;2023-12-14T01:34:20;9.90;99.90
76172;DHT22;64929;51.178;4.138;2023-12-14T01:36:46;10.00;99.90
76172;DHT22;64929;51.178;4.138;2023-12-14T01:39:12;10.00;99.90
76172;DHT22;64929;51.178;4.138;2023-12-14T01:41:37;10.00;99.90
76172;DHT22;64929;51.178;4.138;2023-12-14T01:44:03;9.90;99.90
76172;DHT22;64929;51.178;4.138;2023-12-14T01:46:29;9.80;99.90
76172;DHT22;64929;51.178;4.138;2023-12-14T01:48:55;9.80;99.90
76172;DHT22;64929;51.178;4.138;2023-12-14T01:51:21;9.90;99.90
76172;DHT22;64929;51.178;4.138;2023-12-14T01:53:46;9.90;99.90
76172;DHT22;64929;51.178;4.138;2023-12-14T01:56:12;9.90;99.90
76172;DHT22;64929;51.178;4.138;2023-12-14T01:58:38;9.80;99.90
76172;DHT22;64929;51.178;4.138;2023-12-14T02:04:14;9.50;99.90
76172;DHT22;64929;51.178;4.138;2023-12-14T02:06:41;9.60;99.90
76172;DHT22;64929;51.178;4.138;2023-12-14T02:09:06;9.80;99.90
76172;DHT22;64929;51.178;4.138;2023-12-14T02:11:32;9.50;99.90
76172;DHT22;64929;51.178;4.138;2023-12-14T02:13:58;9.50;99.90
76172;DHT22;64929;51.178;4.138;2023-12-14T02:16:28;9.60;99.90
76172;DHT22;64929;51.178;4.138;2023-12-14T02:18:54;9.60;99.90
76172;DHT22;64929;51.178;4.138;2023-12-14T02:21:20;9.50;99.90
76172;DHT22;64929;51.178;4.138;2023-12-14T02:23:46;9.50;99.90
76172;DHT22;64929;51.178;4.138;2023-12-14T02:26:12;9.50;99.90
76172;DHT22;64929;51.178;4.138;2023-12-14T02:28:38;9.40;99.90
76172;DHT22;64929;51.178;4.138;2023-12-14T02:31:04;9.30;99.90
76172;DHT22;64929;51.178;4.138;2023-12-14T02:33:30;9.40;99.90
76172;DHT22;64929;51.178;4.138;2023-12-14T02:35:56;9.30;99.90
76172;DHT22;64929;51.178;4.138;2023-12-14T02:38:21;9.40;99.90
76172;DHT22;64929;51.178;4.138;2023-12-14T02:40:47;9.50;99.90
76172;DHT22;64929;51.178;4.138;2023-12-14T02:43:13;9.30;99.90
76172;DHT22;64929;51.178;4.138;2023-12-14T02:45:38;9.20;99.90
76172;DHT22;64929;51.178;4.138;2023-12-14T02:48:04;9.20;99.90
76172;DHT22;64929;51.178;4.138;2023-12-14T02:50:30;9.20;99.90
76172;DHT22;64929;51.178;4.138;2023-12-14T02:52:56;9.10;99.90
76172;DHT22;64929;51.178;4.138;2023-12-14T02:55:21;9.10;99.90
76172;DHT22;64929;51.178;4.138;2023-12-14T02:57:47;9.10;99.90
76172;DHT22;64929;51.178;4.138;2023-12-14T03:00:13;9.00;99.90
76172;DHT22;64929;51.178;4.138;2023-12-14T03:05:07;9.00;99.90
76172;DHT22;64929;51.178;4.138;2023-12-14T03:07:33;9.00;99.90
76172;DHT22;64929;51.178;4.138;2023-12-14T03:09:58;9.10;99.90
76172;DHT22;64929;51.178;4.138;2023-12-14T03:12:24;9.00;99.90
76172;DHT22;64929;51.178;4.138;2023-12-14T03:14:50;9.10;99.90
76172;DHT22;64929;51.178;4.138;2023-12-14T03:17:16;9.00;99.90
76172;DHT22;64929;51.178;4.138;2023-12-14T03:19:42;8.80;99.90
76172;DHT22;64929;51.178;4.138;2023-12-14T03:22:09;8.80;99.90
76172;DHT22;64929;51.178;4.138;2023-12-14T03:24:35;8.90;99.90
76172;DHT22;64929;51.178;4.138;2023-12-14T03:27:02;9.00;99.90
76172;DHT22;64929;51.178;4.138;2023-12-14T03:29:28;9.20;99.90
76172;DHT22;64929;51.178;4.138;2023-12-14T03:31:55;9.10;99.90
76172;DHT22;64929;51.178;4.138;2023-12-14T03:34:21;9.00;99.90
76172;DHT22;64929;51.178;4.138;2023-12-14T03:36:47;9.10;99.90
76172;DHT22;64929;51.178;4.138;2023-12-14T03:39:12;9.00;99.90
76172;DHT22;64929;51.178;4.138;2023-12-14T03:41:38;9.00;99.90
76172;DHT22;64929;51.178;4.138;2023-12-14T03:44:04;9.00;99.90
76172;DHT22;64929;51.178;4.138;2023-12-14T03:46:30;8.80;99.90
76172;DHT22;64929;51.178;4.138;2023-12-14T03:48:56;8.90;99.90
76172;DHT22;64929;51.178;4.138;2023-12-14T03:51:22;8.90;99.90
76172;DHT22;64929;51.178;4.138;2023-12-14T03:53:48;8.80;99.90
76172;DHT22;64929;51.178;4.138;2023-12-14T03:56:17;8.70;99.90
76172;DHT22;64929;51.178;4.138;2023-12-14T03:58:43;8.70;99.90
76172;DHT22;64929;51.178;4.138;2023-12-14T04:01:18;8.70;99.90
76172;DHT22;64929;51.178;4.138;2023-12-14T04:03:44;8.80;99.90
76172;DHT22;64929;51.178;4.138;2023-12-14T04:06:11;8.90;99.90
76172;DHT22;64929;51.178;4.138;2023-12-14T04:08:37;8.90;99.90
76172;DHT22;64929;51.178;4.138;2023-12-14T04:11:03;8.80;99.90
76172;DHT22;64929;51.178;4.138;2023-12-14T04:13:28;8.70;99.90
76172;DHT22;64929;51.178;4.138;2023-12-14T04:15:54;8.70;99.90
76172;DHT22;64929;51.178;4.138;2023-12-14T04:18:20;8.80;99.90
76172;DHT22;64929;51.178;4.138;2023-12-14T04:20:45;8.70;99.90
76172;DHT22;64929;51.178;4.138;2023-12-14T04:23:11;8.70;99.90
76172;DHT22;64929;51.178;4.138;2023-12-14T04:25:37;8.80;99.90
76172;DHT22;64929;51.178;4.138;2023-12-14T04:28:02;8.90;99.90
76172;DHT22;64929;51.178;4.138;2023-12-14T04:30:28;9.00;99.90
76172;DHT22;64929;51.178;4.138;2023-12-14T04:32:54;8.90;99.90
76172;DHT22;64929;51.178;4.138;2023-12-14T04:35:19;9.00;99.90
76172;DHT22;64929;51.178;4.138;2023-12-14T04:37:47;9.00;99.90
76172;DHT22;64929;51.178;4.138;2023-12-14T04:40:13;8.90;99.90
76172;DHT22;64929;51.178;4.138;2023-12-14T04:42:39;8.90;99.90
76172;DHT22;64929;51.178;4.138;2023-12-14T04:45:05;8.80;99.90
76172;DHT22;64929;51.178;4.138;2023-12-14T04:47:31;8.80;99.90
76172;DHT22;64929;51.178;4.138;2023-12-14T04:49:56;8.90;99.90
76172;DHT22;64929;51.178;4.138;2023-12-14T04:52:22;8.90;99.90
76172;DHT22;64929;51.178;4.138;2023-12-14T04:54:48;8.90;99.90
76172;DHT22;64929;51.178;4.138;2023-12-14T04:57:13;8.90;99.90
76172;DHT22;64929;51.178;4.138;2023-12-14T04:59:41;9.10;99.90
76172;DHT22;64929;51.178;4.138;2023-12-14T05:02:07;8.90;99.90
76172;DHT22;64929;51.178;4.138;2023-12-14T05:04:33;8.90;99.90
76172;DHT22;64929;51.178;4.138;2023-12-14T05:06:58;9.00;99.90
76172;DHT22;64929;51.178;4.138;2023-12-14T05:09:24;9.00;99.90
76172;DHT22;64929;51.178;4.138;2023-12-14T05:11:50;9.10;99.90
76172;DHT22;64929;51.178;4.138;2023-12-14T05:14:15;9.00;99.90
76172;DHT22;64929;51.178;4.138;2023-12-14T05:16:41;9.00;99.90
76172;DHT22;64929;51.178;4.138;2023-12-14T05:19:07;8.90;99.90
76172;DHT22;64929;51.178;4.138;2023-12-14T05:21:32;8.70;99.90
76172;DHT22;64929;51.178;4.138;2023-12-14T05:23:58;8.80;99.90
76172;DHT22;64929;51.178;4.138;2023-12-14T05:26:24;8.70;99.90
76172;DHT22;64929;51.178;4.138;2023-12-14T05:28:50;8.60;99.90
76172;DHT22;64929;51.178;4.138;2023-12-14T05:31:15;8.60;99.90
76172;DHT22;64929;51.178;4.138;2023-12-14T05:33:41;8.70;99.90
76172;DHT22;64929;51.178;4.138;2023-12-14T05:36:07;8.70;99.90
76172;DHT22;64929;51.178;4.138;2023-12-14T05:38:39;8.70;99.90
76172;DHT22;64929;51.178;4.138;2023-12-14T05:41:05;8.70;99.90
76172;DHT22;64929;51.178;4.138;2023-12-14T05:43:32;8.70;99.90
76172;DHT22;64929;51.178;4.138;2023-12-14T05:45:58;8.90;99.90
76172;DHT22;64929;51.178;4.138;2023-12-14T05:48:24;8.90;99.90
76172;DHT22;64929;51.178;4.138;2023-12-14T05:50:51;8.90;99.90
76172;DHT22;64929;51.178;4.138;2023-12-14T05:53:17;8.80;99.90
76172;DHT22;64929;51.178;4.138;2023-12-14T05:55:42;8.80;99.90
76172;DHT22;64929;51.178;4.138;2023-12-14T05:58:08;8.70;99.90
76172;DHT22;64929;51.178;4.138;2023-12-14T06:00:35;8.60;99.90
76172;DHT22;64929;51.178;4.138;2023-12-14T06:03:02;8.60;99.90
76172;DHT22;64929;51.178;4.138;2023-12-14T06:05:28;8.60;99.90
76172;DHT22;64929;51.178;4.138;2023-12-14T06:07:53;8.40;99.90
76172;DHT22;64929;51.178;4.138;2023-12-14T06:10:20;8.30;99.90
76172;DHT22;64929;51.178;4.138;2023-12-14T06:12:46;8.40;99.90
76172;DHT22;64929;51.178;4.138;2023-12-14T06:15:12;8.40;99.90
76172;DHT22;64929;51.178;4.138;2023-12-14T06:17:38;8.50;99.90
76172;DHT22;64929;51.178;4.138;2023-12-14T06:20:06;8.40;99.90
76172;DHT22;64929;51.178;4.138;2023-12-14T06:22:38;8.30;99.90
76172;DHT22;64929;51.178;4.138;2023-12-14T06:25:04;8.50;99.90
76172;DHT22;64929;51.178;4.138;2023-12-14T06:27:30;8.30;99.90
76172;DHT22;64929;51.178;4.138;2023-12-14T06:29:56;8.30;99.90
76172;DHT22;64929;51.178;4.138;2023-12-14T06:32:22;8.10;99.90
76172;DHT22;64929;51.178;4.138;2023-12-14T06:34:47;8.20;99.90
76172;DHT22;64929;51.178;4.138;2023-12-14T06:37:13;8.20;99.90
76172;DHT22;64929;51.178;4.138;2023-12-14T06:39:41;8.10;99.90
76172;DHT22;64929;51.178;4.138;2023-12-14T06:42:06;8.10;99.90
76172;DHT22;64929;51.178;4.138;2023-12-14T06:44:32;8.10;99.90
76172;DHT22;64929;51.178;4.138;2023-12-14T06:46:58;8.10;99.90
76172;DHT22;64929;51.178;4.138;2023-12-14T06:49:24;8.10;99.90
76172;DHT22;64929;51.178;4.138;2023-12-14T06:51:50;8.10;99.90
76172;DHT22;64929;51.178;4.138;2023-12-14T06:54:16;8.10;99.90
76172;DHT22;64929;51.178;4.138;2023-12-14T06:56:41;8.10;99.90
76172;DHT22;64929;51.178;4.138;2023-12-14T06:59:07;8.10;99.90
76172;DHT22;64929;51.178;4.138;2023-12-14T07:01:33;8.20;99.90
76172;DHT22;64929;51.178;4.138;2023-12-14T07:03:58;8.30;99.90
76172;DHT22;64929;51.178;4.138;2023-12-14T07:06:24;8.40;99.90
76172;DHT22;64929;51.178;4.138;2023-12-14T07:08:50;8.40;99.90
76172;DHT22;64929;51.178;4.138;2023-12-14T07:11:15;8.50;99.90
76172;DHT22;64929;51.178;4.138;2023-12-14T07:13:41;8.40;99.90
76172;DHT22;64929;51.178;4.138;2023-12-14T07:16:08;8.30;99.90
76172;DHT22;64929;51.178;4.138;2023-12-14T07:18:38;8.30;99.90
76172;DHT22;64929;51.178;4.138;2023-12-14T07:21:04;8.60;99.90
76172;DHT22;64929;51.178;4.138;2023-12-14T07:23:30;8.50;99.90
76172;DHT22;64929;51.178;4.138;2023-12-14T07:25:56;8.40;99.90
76172;DHT22;64929;51.178;4.138;2023-12-14T07:28:23;8.40;99.90
76172;DHT22;64929;51.178;4.138;2023-12-14T07:30:49;8.50;99.90
76172;DHT22;64929;51.178;4.138;2023-12-14T07:33:15;8.50;99.90
76172;DHT22;64929;51.178;4.138;2023-12-14T07:35:41;8.40;99.90
76172;DHT22;64929;51.178;4.138;2023-12-14T07:38:07;8.40;99.90
76172;DHT22;64929;51.178;4.138;2023-12-14T07:40:32;8.50;99.90
76172;DHT22;64929;51.178;4.138;2023-12-14T07:42:58;8.50;99.90
76172;DHT22;64929;51.178;4.138;2023-12-14T07:45:24;8.60;99.90
76172;DHT22;64929;51.178;4.138;2023-12-14T07:47:49;8.50;99.90
76172;DHT22;64929;51.178;4.138;2023-12-14T07:50:15;8.40;99.90
76172;DHT22;64929;51.178;4.138;2023-12-14T07:52:41;8.40;99.90
76172;DHT22;64929;51.178;4.138;2023-12-14T07:55:07;8.50;99.90
76172;DHT22;64929;51.178;4.138;2023-12-14T07:57:33;8.60;99.90
76172;DHT22;64929;51.178;4.138;2023-12-14T07:59:59;8.60;99.90
76172;DHT22;64929;51.178;4.138;2023-12-14T08:02:24;8.60;99.90
76172;DHT22;64929;51.178;4.138;2023-12-14T08:04:50;8.40;99.90
76172;DHT22;64929;51.178;4.138;2023-12-14T08:07:16;8.30;99.90
76172;DHT22;64929;51.178;4.138;2023-12-14T08:09:41;8.10;99.90
76172;DHT22;64929;51.178;4.138;2023-12-14T08:12:07;8.10;99.90
76172;DHT22;64929;51.178;4.138;2023-12-14T08:14:33;8.40;99.90
76172;DHT22;64929;51.178;4.138;2023-12-14T08:17:04;8.40;99.90
76172;DHT22;64929;51.178;4.138;2023-12-14T08:19:30;8.40;99.90
76172;DHT22;64929;51.178;4.138;2023-12-14T08:21:56;8.50;99.90
76172;DHT22;64929;51.178;4.138;2023-12-14T08:24:21;8.40;99.90
76172;DHT22;64929;51.178;4.138;2023-12-14T08:26:47;8.50;99.90
76172;DHT22;64929;51.178;4.138;2023-12-14T08:29:13;8.60;99.90
76172;DHT22;64929;51.178;4.138;2023-12-14T08:31:39;8.70;99.90
76172;DHT22;64929;51.178;4.138;2023-12-14T08:34:04;8.60;99.90
76172;DHT22;64929;51.178;4.138;2023-12-14T08:36:30;8.70;99.90
76172;DHT22;64929;51.178;4.138;2023-12-14T08:38:57;8.70;99.90
76172;DHT22;64929;51.178;4.138;2023-12-14T08:41:22;8.80;99.90
76172;DHT22;64929;51.178;4.138;2023-12-14T08:43:48;8.90;99.90
76172;DHT22;64929;51.178;4.138;2023-12-14T08:46:14;8.90;99.90
76172;DHT22;64929;51.178;4.138;2023-12-14T08:48:39;8.90;99.90
76172;DHT22;64929;51.178;4.138;2023-12-14T08:51:06;8.80;99.90
76172;DHT22;64929;51.178;4.138;2023-12-14T08:53:31;8.90;99.90
76172;DHT22;64929;51.178;4.138;2023-12-14T08:55:57;9.10;99.90
76172;DHT22;64929;51.178;4.138;2023-12-14T08:58:23;9.20;99.90
76172;DHT22;64929;51.178;4.138;2023-12-14T09:00:49;9.10;99.90
76172;DHT22;64929;51.178;4.138;2023-12-14T09:03:21;9.20;99.90
76172;DHT22;64929;51.178;4.138;2023-12-14T09:05:47;9.20;99.90
76172;DHT22;64929;51.178;4.138;2023-12-14T09:08:13;9.20;99.90
76172;DHT22;64929;51.178;4.138;2023-12-14T09:10:39;9.20;99.90
76172;DHT22;64929;51.178;4.138;2023-12-14T09:13:05;9.20;99.90
76172;DHT22;64929;51.178;4.138;2023-12-14T09:15:33;9.20;99.90
76172;DHT22;64929;51.178;4.138;2023-12-14T09:18:00;9.20;99.90
76172;DHT22;64929;51.178;4.138;2023-12-14T09:20:26;9.10;99.90
76172;DHT22;64929;51.178;4.138;2023-12-14T09:22:52;8.90;99.90
76172;DHT22;64929;51.178;4.138;2023-12-14T09:25:18;9.20;99.90
76172;DHT22;64929;51.178;4.138;2023-12-14T09:27:44;9.50;99.90
76172;DHT22;64929;51.178;4.138;2023-12-14T09:30:10;9.30;99.90
76172;DHT22;64929;51.178;4.138;2023-12-14T09:32:36;9.20;99.90
76172;DHT22;64929;51.178;4.138;2023-12-14T09:35:02;9.20;99.90
76172;DHT22;64929;51.178;4.138;2023-12-14T09:37:28;9.20;99.90
76172;DHT22;64929;51.178;4.138;2023-12-14T09:39:54;9.00;99.90
76172;DHT22;64929;51.178;4.138;2023-12-14T09:42:20;9.00;99.90
76172;DHT22;64929;51.178;4.138;2023-12-14T09:44:47;9.10;99.90
76172;DHT22;64929;51.178;4.138;2023-12-14T09:47:13;9.00;99.90
76172;DHT22;64929;51.178;4.138;2023-12-14T09:49:41;9.00;99.90
76172;DHT22;64929;51.178;4.138;2023-12-14T09:52:08;9.00;99.90
76172;DHT22;64929;51.178;4.138;2023-12-14T09:54:34;9.00;99.90
76172;DHT22;64929;51.178;4.138;2023-12-14T09:57:00;9.10;99.90
76172;DHT22;64929;51.178;4.138;2023-12-14T09:59:26;9.30;99.90
76172;DHT22;64929;51.178;4.138;2023-12-14T10:01:52;9.40;99.90
76172;DHT22;64929;51.178;4.138;2023-12-14T10:04:19;9.40;99.90
76172;DHT22;64929;51.178;4.138;2023-12-14T10:06:46;9.50;99.90
76172;DHT22;64929;51.178;4.138;2023-12-14T10:09:13;9.40;99.90
76172;DHT22;64929;51.178;4.138;2023-12-14T10:11:40;9.50;99.90
76172;DHT22;64929;51.178;4.138;2023-12-14T10:14:23;9.60;99.90
76172;DHT22;64929;51.178;4.138;2023-12-14T10:16:50;9.60;99.90
76172;DHT22;64929;51.178;4.138;2023-12-14T10:19:18;9.60;99.90
76172;DHT22;64929;51.178;4.138;2023-12-14T10:21:43;9.70;99.90
76172;DHT22;64929;51.178;4.138;2023-12-14T10:24:12;9.70;99.90
76172;DHT22;64929;51.178;4.138;2023-12-14T10:26:38;9.80;99.90
76172;DHT22;64929;51.178;4.138;2023-12-14T10:29:03;10.00;99.90
76172;DHT22;64929;51.178;4.138;2023-12-14T10:31:31;10.00;99.90
76172;DHT22;64929;51.178;4.138;2023-12-14T10:33:57;10.00;99.90
76172;DHT22;64929;51.178;4.138;2023-12-14T10:36:25;10.10;99.90
76172;DHT22;64929;51.178;4.138;2023-12-14T10:38:53;10.30;99.90
76172;DHT22;64929;51.178;4.138;2023-12-14T10:41:21;10.30;99.90
76172;DHT22;64929;51.178;4.138;2023-12-14T10:43:48;10.10;99.90
76172;DHT22;64929;51.178;4.138;2023-12-14T10:46:14;9.90;99.90
76172;DHT22;64929;51.178;4.138;2023-12-14T10:48:40;9.70;99.90
76172;DHT22;64929;51.178;4.138;2023-12-14T10:51:13;9.60;99.90
76172;DHT22;64929;51.178;4.138;2023-12-14T10:53:39;9.60;99.90
76172;DHT22;64929;51.178;4.138;2023-12-14T10:56:07;9.70;99.90
76172;DHT22;64929;51.178;4.138;2023-12-14T10:59:02;9.80;99.90
76172;DHT22;64929;51.178;4.138;2023-12-14T11:01:28;9.50;99.90
76172;DHT22;64929;51.178;4.138;2023-12-14T11:03:59;9.80;99.90
76172;DHT22;64929;51.178;4.138;2023-12-14T11:06:31;10.00;99.90
76172;DHT22;64929;51.178;4.138;2023-12-14T11:09:04;10.10;99.90
76172;DHT22;64929;51.178;4.138;2023-12-14T11:12:01;10.10;99.90
76172;DHT22;64929;51.178;4.138;2023-12-14T11:14:29;10.00;99.90
76172;DHT22;64929;51.178;4.138;2023-12-14T11:16:56;9.80;99.90
76172;DHT22;64929;51.178;4.138;2023-12-14T11:19:28;9.80;99.90
76172;DHT22;64929;51.178;4.138;2023-12-14T11:24:23;9.60;99.90
76172;DHT22;64929;51.178;4.138;2023-12-14T11:26:50;9.20;99.90
76172;DHT22;64929;51.178;4.138;2023-12-14T11:29:17;9.00;99.90
76172;DHT22;64929;51.178;4.138;2023-12-14T11:31:43;9.10;99.90
76172;DHT22;64929;51.178;4.138;2023-12-14T11:34:08;9.20;99.90
76172;DHT22;64929;51.178;4.138;2023-12-14T11:36:34;9.20;99.90
76172;DHT22;64929;51.178;4.138;2023-12-14T11:39:00;9.20;99.90
76172;DHT22;64929;51.178;4.138;2023-12-14T11:41:26;9.40;99.90
76172;DHT22;64929;51.178;4.138;2023-12-14T11:43:54;9.20;99.90
76172;DHT22;64929;51.178;4.138;2023-12-14T11:46:21;9.20;99.90
76172;DHT22;64929;51.178;4.138;2023-12-14T11:48:47;9.20;99.90
76172;DHT22;64929;51.178;4.138;2023-12-14T11:51:15;9.00;99.90
76172;DHT22;64929;51.178;4.138;2023-12-14T11:53:45;9.10;99.90
76172;DHT22;64929;51.178;4.138;2023-12-14T11:56:11;9.10;99.90
76172;DHT22;64929;51.178;4.138;2023-12-14T11:58:40;9.20;99.90
76172;DHT22;64929;51.178;4.138;2023-12-14T12:01:17;9.20;99.90
76172;DHT22;64929;51.178;4.138;2023-12-14T12:03:44;9.30;99.90
76172;DHT22;64929;51.178;4.138;2023-12-14T12:06:24;9.40;99.90
76172;DHT22;64929;51.178;4.138;2023-12-14T12:08:50;9.30;99.90
76172;DHT22;64929;51.178;4.138;2023-12-14T12:11:17;9.40;99.90
76172;DHT22;64929;51.178;4.138;2023-12-14T12:13:43;9.60;99.90
76172;DHT22;64929;51.178;4.138;2023-12-14T12:16:09;9.60;99.90
76172;DHT22;64929;51.178;4.138;2023-12-14T12:18:35;9.70;99.90
76172;DHT22;64929;51.178;4.138;2023-12-14T12:21:00;9.70;99.90
76172;DHT22;64929;51.178;4.138;2023-12-14T12:23:29;9.80;99.90
76172;DHT22;64929;51.178;4.138;2023-12-14T12:25:55;9.80;99.90
76172;DHT22;64929;51.178;4.138;2023-12-14T12:28:21;9.90;99.90
76172;DHT22;64929;51.178;4.138;2023-12-14T12:30:47;9.70;99.90
76172;DHT22;64929;51.178;4.138;2023-12-14T12:33:13;9.90;99.90
76172;DHT22;64929;51.178;4.138;2023-12-14T12:35:39;9.80;99.90
76172;DHT22;64929;51.178;4.138;2023-12-14T12:38:05;9.70;99.90
76172;DHT22;64929;51.178;4.138;2023-12-14T12:40:31;9.90;99.90
76172;DHT22;64929;51.178;4.138;2023-12-14T12:42:58;9.70;99.90
76172;DHT22;64929;51.178;4.138;2023-12-14T12:45:24;9.70;99.90
76172;DHT22;64929;51.178;4.138;2023-12-14T12:47:53;9.80;99.90
76172;DHT22;64929;51.178;4.138;2023-12-14T12:50:19;9.80;99.90
76172;DHT22;64929;51.178;4.138;2023-12-14T12:52:44;9.60;99.90
76172;DHT22;64929;51.178;4.138;2023-12-14T12:55:14;9.50;99.90
76172;DHT22;64929;51.178;4.138;2023-12-14T12:57:40;9.60;99.90
76172;DHT22;64929;51.178;4.138;2023-12-14T13:00:07;9.60;99.90
76172;DHT22;64929;51.178;4.138;2023-12-14T13:02:37;9.70;99.90
76172;DHT22;64929;51.178;4.138;2023-12-14T13:05:05;9.70;99.90
76172;DHT22;64929;51.178;4.138;2023-12-14T13:07:31;9.60;99.90
76172;DHT22;64929;51.178;4.138;2023-12-14T13:09:57;9.70;99.90
76172;DHT22;64929;51.178;4.138;2023-12-14T13:12:23;9.70;99.90
76172;DHT22;64929;51.178;4.138;2023-12-14T13:14:48;9.70;99.90
76172;DHT22;64929;51.178;4.138;2023-12-14T13:17:14;9.90;99.90
76172;DHT22;64929;51.178;4.138;2023-12-14T13:19:46;10.00;99.90
76172;DHT22;64929;51.178;4.138;2023-12-14T13:22:11;10.00;99.90
76172;DHT22;64929;51.178;4.138;2023-12-14T13:24:40;10.10;99.90
76172;DHT22;64929;51.178;4.138;2023-12-14T13:27:05;10.30;99.90
76172;DHT22;64929;51.178;4.138;2023-12-14T13:29:31;10.20;99.90
76172;DHT22;64929;51.178;4.138;2023-12-14T13:31:58;10.30;99.90
76172;DHT22;64929;51.178;4.138;2023-12-14T13:34:27;10.20;99.90
76172;DHT22;64929;51.178;4.138;2023-12-14T13:36:56;10.00;99.90
76172;DHT22;64929;51.178;4.138;2023-12-14T13:39:22;10.00;99.90
76172;DHT22;64929;51.178;4.138;2023-12-14T13:41:48;10.20;99.90
76172;DHT22;64929;51.178;4.138;2023-12-14T13:44:14;10.20;99.90
76172;DHT22;64929;51.178;4.138;2023-12-14T13:46:40;10.00;99.90
76172;DHT22;64929;51.178;4.138;2023-12-14T13:49:06;10.10;99.90
76172;DHT22;64929;51.178;4.138;2023-12-14T13:51:31;10.10;99.90
76172;DHT22;64929;51.178;4.138;2023-12-14T13:53:57;10.00;99.90
76172;DHT22;64929;51.178;4.138;2023-12-14T13:56:23;10.00;99.90
76172;DHT22;64929;51.178;4.138;2023-12-14T13:58:49;10.20;99.90
76172;DHT22;64929;51.178;4.138;2023-12-14T14:01:14;10.20;99.90
76172;DHT22;64929;51.178;4.138;2023-12-14T14:03:44;10.30;99.90
76172;DHT22;64929;51.178;4.138;2023-12-14T14:06:13;10.20;99.90
76172;DHT22;64929;51.178;4.138;2023-12-14T14:08:39;10.10;99.90
76172;DHT22;64929;51.178;4.138;2023-12-14T14:11:05;10.00;99.90
76172;DHT22;64929;51.178;4.138;2023-12-14T14:13:30;9.90;99.90
76172;DHT22;64929;51.178;4.138;2023-12-14T14:15:57;10.00;99.90
76172;DHT22;64929;51.178;4.138;2023-12-14T14:18:23;10.10;99.90
76172;DHT22;64929;51.178;4.138;2023-12-14T14:20:48;10.10;99.90
76172;DHT22;64929;51.178;4.138;2023-12-14T14:23:14;10.10;99.90
76172;DHT22;64929;51.178;4.138;2023-12-14T14:25:40;9.80;99.90
76172;DHT22;64929;51.178;4.138;2023-12-14T14:28:06;9.80;99.90
76172;DHT22;64929;51.178;4.138;2023-12-14T14:30:32;9.90;99.90
76172;DHT22;64929;51.178;4.138;2023-12-14T14:32:57;9.90;99.90
76172;DHT22;64929;51.178;4.138;2023-12-14T14:35:23;9.80;99.90
76172;DHT22;64929;51.178;4.138;2023-12-14T14:37:51;9.90;99.90
76172;DHT22;64929;51.178;4.138;2023-12-14T14:40:17;9.70;99.90
76172;DHT22;64929;51.178;4.138;2023-12-14T14:42:44;9.80;99.90
76172;DHT22;64929;51.178;4.138;2023-12-14T14:45:11;10.00;99.90
76172;DHT22;64929;51.178;4.138;2023-12-14T14:47:37;9.90;99.90
76172;DHT22;64929;51.178;4.138;2023-12-14T14:50:03;9.90;99.90
76172;DHT22;64929;51.178;4.138;2023-12-14T14:52:33;9.90;99.90
76172;DHT22;64929;51.178;4.138;2023-12-14T14:54:59;10.00;99.90
76172;DHT22;64929;51.178;4.138;2023-12-14T14:57:25;10.00;99.90
76172;DHT22;64929;51.178;4.138;2023-12-14T14:59:51;10.00;99.90
76172;DHT22;64929;51.178;4.138;2023-12-14T15:02:17;9.80;99.90
76172;DHT22;64929;51.178;4.138;2023-12-14T15:04:43;9.80;99.90
76172;DHT22;64929;51.178;4.138;2023-12-14T15:07:09;9.80;99.90
76172;DHT22;64929;51.178;4.138;2023-12-14T15:09:34;10.00;99.90
76172;DHT22;64929;51.178;4.138;2023-12-14T15:12:00;9.90;99.90
76172;DHT22;64929;51.178;4.138;2023-12-14T15:14:26;9.90;99.90
76172;DHT22;64929;51.178;4.138;2023-12-14T15:16:54;9.90;99.90
76172;DHT22;64929;51.178;4.138;2023-12-14T15:19:20;9.70;99.90
76172;DHT22;64929;51.178;4.138;2023-12-14T15:21:46;9.80;99.90
76172;DHT22;64929;51.178;4.138;2023-12-14T15:24:12;9.60;99.90
76172;DHT22;64929;51.178;4.138;2023-12-14T15:26:38;9.70;99.90
76172;DHT22;64929;51.178;4.138;2023-12-14T15:29:04;9.60;99.90
76172;DHT22;64929;51.178;4.138;2023-12-14T15:31:29;9.50;99.90
76172;DHT22;64929;51.178;4.138;2023-12-14T15:33:56;9.40;99.90
76172;DHT22;64929;51.178;4.138;2023-12-14T15:36:22;9.70;99.90
76172;DHT22;64929;51.178;4.138;2023-12-14T15:38:48;9.40;99.90
76172;DHT22;64929;51.178;4.138;2023-12-14T15:41:14;9.70;99.90
76172;DHT22;64929;51.178;4.138;2023-12-14T15:43:41;9.60;99.90
76172;DHT22;64929;51.178;4.138;2023-12-14T15:46:07;9.50;99.90